Arlington Center, Vermont
Current Conditions -  °F | °C
As of 2:54 AM on Sunday 26 Oct 2014 (Local Time) from KDDH Reporting Station
Overcast Overcast  
Wind Chill: 51°   Ceiling: 9500
Heat Index: 51°   Visibility: 9mi
Dew Point: 45°   Wind: 3mph
Humidity: 80%   Direction: 240°WSW
Pressure: 29.5"   Gusts: NA
Location:  43.1041°N, 73.154°W
Report Text: KDDH 260654Z AUTO 24003KT 9SM FEW055 SCT070 OVC095 11/07 A2950 RMK AO2 LTG DSNT S SLP987 T01060072
Loading
Personal Weather Stations






























Interactive Weather Map New forecast layout! Learn more

10-Day Weather Forecast

Advertisements
Track Severe Weather on mobile